sensor_id;sensor_type;location;lat;lon;timestamp;P1;durP1;ratioP1;P2;durP2;ratioP2
7177;SDS011;3630;42.146;24.756;2023-03-14T00:00:04;6.93;;;5.13;;
7177;SDS011;3630;42.146;24.756;2023-03-14T00:02:35;6.47;;;4.87;;
7177;SDS011;3630;42.146;24.756;2023-03-14T00:05:01;9.60;;;5.33;;
7177;SDS011;3630;42.146;24.756;2023-03-14T00:07:31;6.90;;;5.23;;
7177;SDS011;3630;42.146;24.756;2023-03-14T00:10:00;10.00;;;5.40;;
7177;SDS011;3630;42.146;24.756;2023-03-14T00:12:30;6.60;;;5.10;;
7177;SDS011;3630;42.146;24.756;2023-03-14T00:14:57;10.50;;;5.63;;
7177;SDS011;3630;42.146;24.756;2023-03-14T00:17:25;7.60;;;5.67;;
7177;SDS011;3630;42.146;24.756;2023-03-14T00:19:52;9.97;;;6.00;;
7177;SDS011;3630;42.146;24.756;2023-03-14T00:22:25;10.00;;;5.27;;
7177;SDS011;3630;42.146;24.756;2023-03-14T00:24:55;8.53;;;5.30;;
7177;SDS011;3630;42.146;24.756;2023-03-14T00:27:36;6.10;;;5.20;;
7177;SDS011;3630;42.146;24.756;2023-03-14T00:30:03;10.43;;;5.80;;
7177;SDS011;3630;42.146;24.756;2023-03-14T00:32:33;8.60;;;5.40;;
7177;SDS011;3630;42.146;24.756;2023-03-14T00:35:00;7.33;;;5.80;;
7177;SDS011;3630;42.146;24.756;2023-03-14T00:37:27;8.07;;;6.17;;
7177;SDS011;3630;42.146;24.756;2023-03-14T00:39:53;9.70;;;7.33;;
7177;SDS011;3630;42.146;24.756;2023-03-14T00:42:20;12.03;;;7.77;;
7177;SDS011;3630;42.146;24.756;2023-03-14T00:44:48;11.97;;;6.77;;
7177;SDS011;3630;42.146;24.756;2023-03-14T00:47:15;11.83;;;7.03;;
7177;SDS011;3630;42.146;24.756;2023-03-14T00:49:42;13.87;;;7.50;;
7177;SDS011;3630;42.146;24.756;2023-03-14T00:52:08;13.45;;;8.15;;
7177;SDS011;3630;42.146;24.756;2023-03-14T00:54:35;12.73;;;7.70;;
7177;SDS011;3630;42.146;24.756;2023-03-14T00:57:02;11.73;;;6.80;;
7177;SDS011;3630;42.146;24.756;2023-03-14T00:59:29;9.53;;;6.93;;
7177;SDS011;3630;42.146;24.756;2023-03-14T01:01:57;17.00;;;7.43;;
7177;SDS011;3630;42.146;24.756;2023-03-14T01:04:24;8.97;;;6.93;;
7177;SDS011;3630;42.146;24.756;2023-03-14T01:06:51;10.87;;;6.90;;
7177;SDS011;3630;42.146;24.756;2023-03-14T01:09:17;12.40;;;7.00;;
7177;SDS011;3630;42.146;24.756;2023-03-14T01:11:44;10.57;;;7.43;;
7177;SDS011;3630;42.146;24.756;2023-03-14T01:14:11;7.57;;;6.67;;
7177;SDS011;3630;42.146;24.756;2023-03-14T01:16:38;9.27;;;7.47;;
7177;SDS011;3630;42.146;24.756;2023-03-14T01:19:07;7.73;;;6.40;;
7177;SDS011;3630;42.146;24.756;2023-03-14T01:21:34;9.93;;;7.43;;
7177;SDS011;3630;42.146;24.756;2023-03-14T01:24:03;8.73;;;7.60;;
7177;SDS011;3630;42.146;24.756;2023-03-14T01:26:32;10.90;;;7.37;;
7177;SDS011;3630;42.146;24.756;2023-03-14T01:29:00;8.60;;;7.20;;
7177;SDS011;3630;42.146;24.756;2023-03-14T01:31:28;10.83;;;7.47;;
7177;SDS011;3630;42.146;24.756;2023-03-14T01:33:55;12.53;;;7.67;;
7177;SDS011;3630;42.146;24.756;2023-03-14T01:36:23;10.43;;;6.57;;
7177;SDS011;3630;42.146;24.756;2023-03-14T01:38:50;13.77;;;8.17;;
7177;SDS011;3630;42.146;24.756;2023-03-14T01:41:18;9.60;;;6.70;;
7177;SDS011;3630;42.146;24.756;2023-03-14T01:43:46;9.53;;;7.77;;
7177;SDS011;3630;42.146;24.756;2023-03-14T01:46:28;11.10;;;6.97;;
7177;SDS011;3630;42.146;24.756;2023-03-14T01:48:59;12.20;;;7.43;;
7177;SDS011;3630;42.146;24.756;2023-03-14T01:51:33;12.90;;;7.77;;
7177;SDS011;3630;42.146;24.756;2023-03-14T01:54:04;11.77;;;9.13;;
7177;SDS011;3630;42.146;24.756;2023-03-14T01:56:35;12.00;;;8.60;;
7177;SDS011;3630;42.146;24.756;2023-03-14T01:59:04;11.30;;;9.38;;
7177;SDS011;3630;42.146;24.756;2023-03-14T02:01:34;11.53;;;8.30;;
7177;SDS011;3630;42.146;24.756;2023-03-14T02:04:02;11.80;;;8.70;;
7177;SDS011;3630;42.146;24.756;2023-03-14T02:06:33;11.00;;;8.00;;
7177;SDS011;3630;42.146;24.756;2023-03-14T02:09:05;12.00;;;9.07;;
7177;SDS011;3630;42.146;24.756;2023-03-14T02:11:32;12.90;;;9.27;;
7177;SDS011;3630;42.146;24.756;2023-03-14T02:13:59;15.38;;;10.48;;
7177;SDS011;3630;42.146;24.756;2023-03-14T02:16:27;13.30;;;10.03;;
7177;SDS011;3630;42.146;24.756;2023-03-14T02:18:54;13.17;;;10.07;;
7177;SDS011;3630;42.146;24.756;2023-03-14T02:21:23;13.70;;;10.53;;
7177;SDS011;3630;42.146;24.756;2023-03-14T02:24:04;14.63;;;10.40;;
7177;SDS011;3630;42.146;24.756;2023-03-14T02:26:36;12.30;;;9.87;;
7177;SDS011;3630;42.146;24.756;2023-03-14T02:29:08;12.40;;;9.67;;
7177;SDS011;3630;42.146;24.756;2023-03-14T02:31:36;11.23;;;9.67;;
7177;SDS011;3630;42.146;24.756;2023-03-14T02:34:04;13.87;;;10.90;;
7177;SDS011;3630;42.146;24.756;2023-03-14T02:36:32;15.52;;;11.23;;
7177;SDS011;3630;42.146;24.756;2023-03-14T02:39:01;16.87;;;10.67;;
7177;SDS011;3630;42.146;24.756;2023-03-14T02:41:34;13.73;;;10.13;;
7177;SDS011;3630;42.146;24.756;2023-03-14T02:44:00;14.30;;;10.50;;
7177;SDS011;3630;42.146;24.756;2023-03-14T02:46:29;13.60;;;9.90;;
7177;SDS011;3630;42.146;24.756;2023-03-14T02:48:57;14.00;;;9.90;;
7177;SDS011;3630;42.146;24.756;2023-03-14T02:51:28;14.10;;;9.50;;
7177;SDS011;3630;42.146;24.756;2023-03-14T02:53:58;15.77;;;10.07;;
7177;SDS011;3630;42.146;24.756;2023-03-14T02:56:24;14.37;;;10.57;;
7177;SDS011;3630;42.146;24.756;2023-03-14T02:58:51;12.80;;;9.90;;
7177;SDS011;3630;42.146;24.756;2023-03-14T03:01:18;13.33;;;10.23;;
7177;SDS011;3630;42.146;24.756;2023-03-14T03:03:46;14.83;;;10.87;;
7177;SDS011;3630;42.146;24.756;2023-03-14T03:06:13;17.17;;;10.93;;
7177;SDS011;3630;42.146;24.756;2023-03-14T03:08:41;18.20;;;10.50;;
7177;SDS011;3630;42.146;24.756;2023-03-14T03:11:07;14.67;;;10.37;;
7177;SDS011;3630;42.146;24.756;2023-03-14T03:13:34;14.10;;;10.47;;
7177;SDS011;3630;42.146;24.756;2023-03-14T03:16:01;16.13;;;10.77;;
7177;SDS011;3630;42.146;24.756;2023-03-14T03:18:28;14.80;;;11.13;;
7177;SDS011;3630;42.146;24.756;2023-03-14T03:20:59;14.37;;;10.77;;
7177;SDS011;3630;42.146;24.756;2023-03-14T03:23:26;12.60;;;10.83;;
7177;SDS011;3630;42.146;24.756;2023-03-14T03:25:53;16.27;;;11.57;;
7177;SDS011;3630;42.146;24.756;2023-03-14T03:28:20;15.10;;;10.50;;
7177;SDS011;3630;42.146;24.756;2023-03-14T03:30:46;19.17;;;12.63;;
7177;SDS011;3630;42.146;24.756;2023-03-14T03:33:13;21.50;;;12.23;;
7177;SDS011;3630;42.146;24.756;2023-03-14T03:35:44;19.13;;;14.00;;
7177;SDS011;3630;42.146;24.756;2023-03-14T03:38:13;16.93;;;12.60;;
7177;SDS011;3630;42.146;24.756;2023-03-14T03:40:40;19.37;;;12.53;;
7177;SDS011;3630;42.146;24.756;2023-03-14T03:43:08;19.87;;;12.93;;
7177;SDS011;3630;42.146;24.756;2023-03-14T03:45:34;24.03;;;12.87;;
7177;SDS011;3630;42.146;24.756;2023-03-14T03:48:01;15.50;;;12.20;;
7177;SDS011;3630;42.146;24.756;2023-03-14T03:50:28;15.63;;;11.63;;
7177;SDS011;3630;42.146;24.756;2023-03-14T03:52:55;18.17;;;12.90;;
7177;SDS011;3630;42.146;24.756;2023-03-14T03:55:23;17.33;;;11.77;;
7177;SDS011;3630;42.146;24.756;2023-03-14T03:57:50;17.57;;;13.67;;
7177;SDS011;3630;42.146;24.756;2023-03-14T04:00:17;17.60;;;13.77;;
7177;SDS011;3630;42.146;24.756;2023-03-14T04:02:44;21.47;;;12.90;;
7177;SDS011;3630;42.146;24.756;2023-03-14T04:05:11;19.13;;;13.00;;
7177;SDS011;3630;42.146;24.756;2023-03-14T04:07:38;16.43;;;12.77;;
7177;SDS011;3630;42.146;24.756;2023-03-14T04:10:05;20.93;;;13.53;;
7177;SDS011;3630;42.146;24.756;2023-03-14T04:12:33;18.33;;;13.33;;
7177;SDS011;3630;42.146;24.756;2023-03-14T04:15:00;18.10;;;12.73;;
7177;SDS011;3630;42.146;24.756;2023-03-14T04:17:26;23.23;;;15.95;;
7177;SDS011;3630;42.146;24.756;2023-03-14T04:19:53;17.43;;;13.63;;
7177;SDS011;3630;42.146;24.756;2023-03-14T04:22:20;20.33;;;13.83;;
7177;SDS011;3630;42.146;24.756;2023-03-14T04:24:47;18.53;;;13.47;;
7177;SDS011;3630;42.146;24.756;2023-03-14T04:27:13;28.97;;;17.70;;
7177;SDS011;3630;42.146;24.756;2023-03-14T04:29:42;50.13;;;24.53;;
7177;SDS011;3630;42.146;24.756;2023-03-14T04:32:08;36.10;;;19.67;;
7177;SDS011;3630;42.146;24.756;2023-03-14T04:34:35;27.67;;;17.77;;
7177;SDS011;3630;42.146;24.756;2023-03-14T04:37:02;24.00;;;16.10;;
7177;SDS011;3630;42.146;24.756;2023-03-14T04:39:29;21.73;;;15.03;;
7177;SDS011;3630;42.146;24.756;2023-03-14T04:41:56;20.27;;;14.53;;
7177;SDS011;3630;42.146;24.756;2023-03-14T04:44:22;23.03;;;15.43;;
7177;SDS011;3630;42.146;24.756;2023-03-14T04:46:51;26.03;;;16.13;;
7177;SDS011;3630;42.146;24.756;2023-03-14T04:49:17;28.53;;;18.53;;
7177;SDS011;3630;42.146;24.756;2023-03-14T04:51:44;25.43;;;16.40;;
7177;SDS011;3630;42.146;24.756;2023-03-14T04:54:11;28.17;;;17.77;;
7177;SDS011;3630;42.146;24.756;2023-03-14T04:56:38;26.10;;;16.00;;
7177;SDS011;3630;42.146;24.756;2023-03-14T04:59:05;32.03;;;20.45;;
7177;SDS011;3630;42.146;24.756;2023-03-14T05:01:31;34.50;;;20.50;;
7177;SDS011;3630;42.146;24.756;2023-03-14T05:03:59;31.43;;;18.30;;
7177;SDS011;3630;42.146;24.756;2023-03-14T05:06:26;28.33;;;17.33;;
7177;SDS011;3630;42.146;24.756;2023-03-14T05:08:53;26.70;;;15.77;;
7177;SDS011;3630;42.146;24.756;2023-03-14T05:11:20;33.73;;;16.03;;
7177;SDS011;3630;42.146;24.756;2023-03-14T05:13:47;24.50;;;15.23;;
7177;SDS011;3630;42.146;24.756;2023-03-14T05:16:13;34.97;;;16.57;;
7177;SDS011;3630;42.146;24.756;2023-03-14T05:18:40;31.10;;;19.00;;
7177;SDS011;3630;42.146;24.756;2023-03-14T05:21:08;42.07;;;25.80;;
7177;SDS011;3630;42.146;24.756;2023-03-14T05:23:35;48.73;;;30.33;;
7177;SDS011;3630;42.146;24.756;2023-03-14T05:26:02;54.13;;;32.93;;
7177;SDS011;3630;42.146;24.756;2023-03-14T05:28:28;51.57;;;36.97;;
7177;SDS011;3630;42.146;24.756;2023-03-14T05:30:55;61.93;;;37.93;;
7177;SDS011;3630;42.146;24.756;2023-03-14T05:33:22;54.43;;;36.83;;
7177;SDS011;3630;42.146;24.756;2023-03-14T05:35:49;62.10;;;32.43;;
7177;SDS011;3630;42.146;24.756;2023-03-14T05:38:17;44.77;;;29.87;;
7177;SDS011;3630;42.146;24.756;2023-03-14T05:40:44;45.97;;;26.40;;
7177;SDS011;3630;42.146;24.756;2023-03-14T05:43:12;28.73;;;22.07;;
7177;SDS011;3630;42.146;24.756;2023-03-14T05:45:40;39.17;;;21.03;;
7177;SDS011;3630;42.146;24.756;2023-03-14T05:48:07;42.57;;;22.20;;
7177;SDS011;3630;42.146;24.756;2023-03-14T05:50:34;40.50;;;22.33;;
7177;SDS011;3630;42.146;24.756;2023-03-14T05:53:01;31.87;;;21.80;;
7177;SDS011;3630;42.146;24.756;2023-03-14T05:55:29;33.67;;;21.17;;
7177;SDS011;3630;42.146;24.756;2023-03-14T05:57:56;36.17;;;20.73;;
7177;SDS011;3630;42.146;24.756;2023-03-14T06:00:23;37.33;;;20.70;;
7177;SDS011;3630;42.146;24.756;2023-03-14T06:02:50;28.50;;;19.73;;
7177;SDS011;3630;42.146;24.756;2023-03-14T06:05:17;25.07;;;18.60;;
7177;SDS011;3630;42.146;24.756;2023-03-14T06:07:43;28.87;;;19.67;;
7177;SDS011;3630;42.146;24.756;2023-03-14T06:10:10;28.63;;;19.30;;
7177;SDS011;3630;42.146;24.756;2023-03-14T06:12:38;29.73;;;18.43;;
7177;SDS011;3630;42.146;24.756;2023-03-14T06:15:06;25.03;;;18.03;;
7177;SDS011;3630;42.146;24.756;2023-03-14T06:17:33;24.13;;;17.87;;
7177;SDS011;3630;42.146;24.756;2023-03-14T06:20:00;28.60;;;17.97;;
7177;SDS011;3630;42.146;24.756;2023-03-14T06:22:27;21.87;;;16.63;;
7177;SDS011;3630;42.146;24.756;2023-03-14T06:24:54;28.27;;;18.03;;
7177;SDS011;3630;42.146;24.756;2023-03-14T06:27:21;30.80;;;18.90;;
7177;SDS011;3630;42.146;24.756;2023-03-14T06:29:49;27.53;;;19.10;;
7177;SDS011;3630;42.146;24.756;2023-03-14T06:32:15;29.47;;;18.63;;
7177;SDS011;3630;42.146;24.756;2023-03-14T06:34:43;24.23;;;17.77;;
7177;SDS011;3630;42.146;24.756;2023-03-14T06:37:10;28.50;;;18.07;;
7177;SDS011;3630;42.146;24.756;2023-03-14T06:39:36;24.07;;;17.07;;
7177;SDS011;3630;42.146;24.756;2023-03-14T06:42:04;30.07;;;17.20;;
7177;SDS011;3630;42.146;24.756;2023-03-14T06:44:30;28.77;;;17.17;;
7177;SDS011;3630;42.146;24.756;2023-03-14T06:46:58;33.27;;;17.90;;
7177;SDS011;3630;42.146;24.756;2023-03-14T06:49:25;26.03;;;16.53;;
7177;SDS011;3630;42.146;24.756;2023-03-14T06:51:52;34.47;;;16.60;;
7177;SDS011;3630;42.146;24.756;2023-03-14T06:54:19;31.03;;;17.67;;
7177;SDS011;3630;42.146;24.756;2023-03-14T06:56:46;26.67;;;16.73;;
7177;SDS011;3630;42.146;24.756;2023-03-14T06:59:12;22.53;;;16.33;;
7177;SDS011;3630;42.146;24.756;2023-03-14T07:01:39;27.03;;;16.93;;
7177;SDS011;3630;42.146;24.756;2023-03-14T07:04:07;19.80;;;16.00;;
7177;SDS011;3630;42.146;24.756;2023-03-14T07:06:35;28.47;;;16.67;;
7177;SDS011;3630;42.146;24.756;2023-03-14T07:09:03;21.50;;;15.67;;
7177;SDS011;3630;42.146;24.756;2023-03-14T07:11:30;20.13;;;14.73;;
7177;SDS011;3630;42.146;24.756;2023-03-14T07:13:56;20.63;;;14.17;;
7177;SDS011;3630;42.146;24.756;2023-03-14T07:16:23;18.43;;;14.17;;
7177;SDS011;3630;42.146;24.756;2023-03-14T07:18:53;20.50;;;14.07;;
7177;SDS011;3630;42.146;24.756;2023-03-14T07:21:21;23.27;;;16.00;;
7177;SDS011;3630;42.146;24.756;2023-03-14T07:23:48;22.23;;;13.53;;
7177;SDS011;3630;42.146;24.756;2023-03-14T07:26:15;23.03;;;15.07;;
7177;SDS011;3630;42.146;24.756;2023-03-14T07:28:41;19.30;;;13.90;;
7177;SDS011;3630;42.146;24.756;2023-03-14T07:31:08;17.17;;;14.50;;
7177;SDS011;3630;42.146;24.756;2023-03-14T07:33:36;25.80;;;15.37;;
7177;SDS011;3630;42.146;24.756;2023-03-14T07:36:03;21.47;;;15.73;;
7177;SDS011;3630;42.146;24.756;2023-03-14T07:38:31;22.20;;;15.13;;
7177;SDS011;3630;42.146;24.756;2023-03-14T07:40:58;20.67;;;15.50;;
7177;SDS011;3630;42.146;24.756;2023-03-14T07:43:26;24.73;;;15.57;;
7177;SDS011;3630;42.146;24.756;2023-03-14T07:45:53;21.90;;;14.93;;
7177;SDS011;3630;42.146;24.756;2023-03-14T07:48:20;23.73;;;15.98;;
7177;SDS011;3630;42.146;24.756;2023-03-14T07:50:50;22.33;;;14.90;;
7177;SDS011;3630;42.146;24.756;2023-03-14T07:53:17;19.50;;;14.00;;
7177;SDS011;3630;42.146;24.756;2023-03-14T07:55:45;20.80;;;15.03;;
7177;SDS011;3630;42.146;24.756;2023-03-14T07:58:13;20.27;;;15.00;;
7177;SDS011;3630;42.146;24.756;2023-03-14T08:00:40;27.37;;;14.00;;
7177;SDS011;3630;42.146;24.756;2023-03-14T08:03:06;17.63;;;14.37;;
7177;SDS011;3630;42.146;24.756;2023-03-14T08:05:34;18.63;;;14.23;;
7177;SDS011;3630;42.146;24.756;2023-03-14T08:08:01;20.63;;;14.90;;
7177;SDS011;3630;42.146;24.756;2023-03-14T08:10:28;15.10;;;12.37;;
7177;SDS011;3630;42.146;24.756;2023-03-14T08:12:56;17.40;;;12.73;;
7177;SDS011;3630;42.146;24.756;2023-03-14T08:15:24;17.90;;;11.87;;
7177;SDS011;3630;42.146;24.756;2023-03-14T08:17:52;16.67;;;10.77;;
7177;SDS011;3630;42.146;24.756;2023-03-14T08:20:19;15.53;;;10.67;;
7177;SDS011;3630;42.146;24.756;2023-03-14T08:22:46;15.00;;;11.07;;
7177;SDS011;3630;42.146;24.756;2023-03-14T08:25:14;14.87;;;10.57;;
7177;SDS011;3630;42.146;24.756;2023-03-14T08:27:41;12.80;;;11.43;;
7177;SDS011;3630;42.146;24.756;2023-03-14T08:30:10;13.77;;;11.13;;
7177;SDS011;3630;42.146;24.756;2023-03-14T08:32:38;16.70;;;11.93;;
7177;SDS011;3630;42.146;24.756;2023-03-14T08:35:06;15.63;;;9.80;;
7177;SDS011;3630;42.146;24.756;2023-03-14T08:37:34;14.83;;;10.30;;
7177;SDS011;3630;42.146;24.756;2023-03-14T08:40:01;16.60;;;12.50;;
7177;SDS011;3630;42.146;24.756;2023-03-14T08:42:31;16.10;;;11.27;;
7177;SDS011;3630;42.146;24.756;2023-03-14T08:44:58;16.53;;;11.10;;
7177;SDS011;3630;42.146;24.756;2023-03-14T08:47:26;15.83;;;11.80;;
7177;SDS011;3630;42.146;24.756;2023-03-14T08:49:54;14.65;;;10.35;;
7177;SDS011;3630;42.146;24.756;2023-03-14T08:52:20;15.47;;;11.20;;
7177;SDS011;3630;42.146;24.756;2023-03-14T08:54:48;16.93;;;10.37;;
7177;SDS011;3630;42.146;24.756;2023-03-14T08:57:14;15.37;;;10.13;;
7177;SDS011;3630;42.146;24.756;2023-03-14T08:59:41;11.90;;;10.10;;
7177;SDS011;3630;42.146;24.756;2023-03-14T09:02:09;13.00;;;9.77;;
7177;SDS011;3630;42.146;24.756;2023-03-14T09:04:38;16.70;;;11.30;;
7177;SDS011;3630;42.146;24.756;2023-03-14T09:07:05;12.27;;;10.90;;
7177;SDS011;3630;42.146;24.756;2023-03-14T09:09:32;15.55;;;10.48;;
7177;SDS011;3630;42.146;24.756;2023-03-14T09:11:59;11.83;;;9.37;;
7177;SDS011;3630;42.146;24.756;2023-03-14T09:14:26;16.10;;;10.17;;
7177;SDS011;3630;42.146;24.756;2023-03-14T09:16:52;14.43;;;9.80;;
7177;SDS011;3630;42.146;24.756;2023-03-14T09:19:19;12.07;;;9.47;;
7177;SDS011;3630;42.146;24.756;2023-03-14T09:21:48;12.57;;;9.43;;
7177;SDS011;3630;42.146;24.756;2023-03-14T09:24:14;11.80;;;8.77;;
7177;SDS011;3630;42.146;24.756;2023-03-14T09:26:42;13.57;;;8.87;;
7177;SDS011;3630;42.146;24.756;2023-03-14T09:29:08;11.63;;;9.00;;
7177;SDS011;3630;42.146;24.756;2023-03-14T09:31:35;10.87;;;9.40;;
7177;SDS011;3630;42.146;24.756;2023-03-14T09:34:02;14.30;;;8.57;;
7177;SDS011;3630;42.146;24.756;2023-03-14T09:36:29;12.27;;;7.80;;
7177;SDS011;3630;42.146;24.756;2023-03-14T09:38:58;10.93;;;7.87;;
7177;SDS011;3630;42.146;24.756;2023-03-14T09:41:26;10.13;;;7.57;;
7177;SDS011;3630;42.146;24.756;2023-03-14T09:43:58;11.03;;;6.93;;
7177;SDS011;3630;42.146;24.756;2023-03-14T09:46:29;10.33;;;7.70;;
7177;SDS011;3630;42.146;24.756;2023-03-14T09:48:58;11.27;;;7.40;;
7177;SDS011;3630;42.146;24.756;2023-03-14T09:51:25;10.10;;;7.50;;
7177;SDS011;3630;42.146;24.756;2023-03-14T09:53:53;10.47;;;7.77;;
7177;SDS011;3630;42.146;24.756;2023-03-14T09:56:22;9.90;;;7.00;;
7177;SDS011;3630;42.146;24.756;2023-03-14T09:58:52;12.00;;;8.10;;
7177;SDS011;3630;42.146;24.756;2023-03-14T10:01:22;8.73;;;7.57;;
7177;SDS011;3630;42.146;24.756;2023-03-14T10:03:54;10.20;;;7.67;;
7177;SDS011;3630;42.146;24.756;2023-03-14T10:06:23;8.03;;;7.13;;
7177;SDS011;3630;42.146;24.756;2023-03-14T10:08:52;9.83;;;7.50;;
7177;SDS011;3630;42.146;24.756;2023-03-14T10:11:21;10.43;;;7.63;;
7177;SDS011;3630;42.146;24.756;2023-03-14T10:13:50;11.17;;;7.33;;
7177;SDS011;3630;42.146;24.756;2023-03-14T10:16:29;10.00;;;6.57;;
7177;SDS011;3630;42.146;24.756;2023-03-14T10:19:01;9.07;;;6.27;;
7177;SDS011;3630;42.146;24.756;2023-03-14T10:21:30;8.67;;;7.67;;
7177;SDS011;3630;42.146;24.756;2023-03-14T10:24:08;14.30;;;7.40;;
7177;SDS011;3630;42.146;24.756;2023-03-14T10:26:38;7.00;;;6.30;;
7177;SDS011;3630;42.146;24.756;2023-03-14T10:29:08;11.37;;;7.83;;
7177;SDS011;3630;42.146;24.756;2023-03-14T10:31:45;9.97;;;8.03;;
7177;SDS011;3630;42.146;24.756;2023-03-14T10:34:15;8.43;;;6.87;;
7177;SDS011;3630;42.146;24.756;2023-03-14T10:36:43;11.00;;;7.47;;
7177;SDS011;3630;42.146;24.756;2023-03-14T10:39:22;10.30;;;7.00;;
7177;SDS011;3630;42.146;24.756;2023-03-14T10:41:54;10.97;;;7.23;;
7177;SDS011;3630;42.146;24.756;2023-03-14T10:44:27;12.20;;;7.17;;
7177;SDS011;3630;42.146;24.756;2023-03-14T10:46:56;9.50;;;7.50;;
7177;SDS011;3630;42.146;24.756;2023-03-14T10:49:27;10.63;;;7.50;;
7177;SDS011;3630;42.146;24.756;2023-03-14T10:51:55;9.87;;;7.67;;
7177;SDS011;3630;42.146;24.756;2023-03-14T10:54:29;11.80;;;7.37;;
7177;SDS011;3630;42.146;24.756;2023-03-14T10:56:58;9.40;;;7.00;;
7177;SDS011;3630;42.146;24.756;2023-03-14T10:59:25;8.17;;;6.70;;
7177;SDS011;3630;42.146;24.756;2023-03-14T11:01:57;8.40;;;6.77;;
7177;SDS011;3630;42.146;24.756;2023-03-14T11:04:40;10.23;;;7.47;;
7177;SDS011;3630;42.146;24.756;2023-03-14T11:07:22;7.27;;;6.43;;
7177;SDS011;3630;42.146;24.756;2023-03-14T11:09:56;8.13;;;7.17;;
7177;SDS011;3630;42.146;24.756;2023-03-14T11:12:35;10.97;;;7.33;;
7177;SDS011;3630;42.146;24.756;2023-03-14T11:15:13;8.03;;;5.70;;
7177;SDS011;3630;42.146;24.756;2023-03-14T11:17:48;7.23;;;6.17;;
7177;SDS011;3630;42.146;24.756;2023-03-14T11:20:29;9.77;;;6.70;;
7177;SDS011;3630;42.146;24.756;2023-03-14T11:23:03;8.40;;;6.63;;
7177;SDS011;3630;42.146;24.756;2023-03-14T11:25:38;10.63;;;8.03;;
7177;SDS011;3630;42.146;24.756;2023-03-14T11:28:16;8.83;;;6.37;;
7177;SDS011;3630;42.146;24.756;2023-03-14T11:30:50;8.47;;;5.33;;
7177;SDS011;3630;42.146;24.756;2023-03-14T11:33:21;9.40;;;5.93;;
7177;SDS011;3630;42.146;24.756;2023-03-14T11:35:53;6.30;;;5.70;;
7177;SDS011;3630;42.146;24.756;2023-03-14T11:38:28;6.63;;;5.67;;
7177;SDS011;3630;42.146;24.756;2023-03-14T11:40:59;6.43;;;5.83;;
7177;SDS011;3630;42.146;24.756;2023-03-14T11:43:29;11.60;;;6.07;;
7177;SDS011;3630;42.146;24.756;2023-03-14T11:46:03;7.33;;;5.43;;
7177;SDS011;3630;42.146;24.756;2023-03-14T11:48:35;8.57;;;5.47;;
7177;SDS011;3630;42.146;24.756;2023-03-14T11:51:07;13.80;;;5.70;;
7177;SDS011;3630;42.146;24.756;2023-03-14T11:53:41;6.30;;;5.00;;
7177;SDS011;3630;42.146;24.756;2023-03-14T11:56:16;6.13;;;5.53;;
7177;SDS011;3630;42.146;24.756;2023-03-14T11:58:53;7.03;;;5.93;;
7177;SDS011;3630;42.146;24.756;2023-03-14T12:01:25;6.40;;;5.67;;
7177;SDS011;3630;42.146;24.756;2023-03-14T12:04:02;6.13;;;5.60;;
7177;SDS011;3630;42.146;24.756;2023-03-14T12:06:37;12.13;;;5.87;;
7177;SDS011;3630;42.146;24.756;2023-03-14T12:09:11;9.00;;;5.67;;
7177;SDS011;3630;42.146;24.756;2023-03-14T12:11:40;9.00;;;5.70;;
7177;SDS011;3630;42.146;24.756;2023-03-14T12:14:19;7.03;;;5.47;;
7177;SDS011;3630;42.146;24.756;2023-03-14T12:16:48;6.37;;;5.77;;
7177;SDS011;3630;42.146;24.756;2023-03-14T12:19:26;7.27;;;5.47;;
7177;SDS011;3630;42.146;24.756;2023-03-14T12:21:56;7.90;;;5.70;;
7177;SDS011;3630;42.146;24.756;2023-03-14T12:24:27;8.52;;;6.60;;
7177;SDS011;3630;42.146;24.756;2023-03-14T12:26:57;7.63;;;6.33;;
7177;SDS011;3630;42.146;24.756;2023-03-14T12:29:27;8.20;;;6.20;;
7177;SDS011;3630;42.146;24.756;2023-03-14T12:32:08;8.40;;;6.33;;
7177;SDS011;3630;42.146;24.756;2023-03-14T12:34:48;7.90;;;6.07;;
7177;SDS011;3630;42.146;24.756;2023-03-14T12:37:28;7.40;;;6.43;;
7177;SDS011;3630;42.146;24.756;2023-03-14T12:40:06;7.10;;;5.80;;
7177;SDS011;3630;42.146;24.756;2023-03-14T12:42:45;7.13;;;6.20;;
7177;SDS011;3630;42.146;24.756;2023-03-14T12:45:23;8.30;;;5.57;;
7177;SDS011;3630;42.146;24.756;2023-03-14T12:50:37;7.10;;;6.37;;
7177;SDS011;3630;42.146;24.756;2023-03-14T12:56:28;9.17;;;6.30;;
7177;SDS011;3630;42.146;24.756;2023-03-14T13:02:12;8.87;;;6.77;;
7177;SDS011;3630;42.146;24.756;2023-03-14T13:04:47;10.50;;;6.37;;
7177;SDS011;3630;42.146;24.756;2023-03-14T13:07:29;8.10;;;6.40;;
7177;SDS011;3630;42.146;24.756;2023-03-14T13:10:04;8.93;;;6.47;;
7177;SDS011;3630;42.146;24.756;2023-03-14T13:12:45;9.17;;;6.03;;
7177;SDS011;3630;42.146;24.756;2023-03-14T13:15:18;6.47;;;5.87;;
7177;SDS011;3630;42.146;24.756;2023-03-14T13:17:50;7.83;;;6.30;;
7177;SDS011;3630;42.146;24.756;2023-03-14T13:20:21;7.93;;;6.27;;
7177;SDS011;3630;42.146;24.756;2023-03-14T13:22:53;9.17;;;7.00;;
7177;SDS011;3630;42.146;24.756;2023-03-14T13:25:20;9.03;;;7.17;;
7177;SDS011;3630;42.146;24.756;2023-03-14T13:27:48;8.43;;;7.43;;
7177;SDS011;3630;42.146;24.756;2023-03-14T13:30:16;8.87;;;6.60;;
7177;SDS011;3630;42.146;24.756;2023-03-14T13:32:47;9.25;;;6.97;;
7177;SDS011;3630;42.146;24.756;2023-03-14T13:35:17;9.37;;;6.53;;
7177;SDS011;3630;42.146;24.756;2023-03-14T13:37:45;7.20;;;6.30;;
7177;SDS011;3630;42.146;24.756;2023-03-14T13:40:19;8.23;;;6.17;;
7177;SDS011;3630;42.146;24.756;2023-03-14T13:42:50;8.07;;;6.20;;
7177;SDS011;3630;42.146;24.756;2023-03-14T13:45:27;7.07;;;6.37;;
7177;SDS011;3630;42.146;24.756;2023-03-14T13:47:54;11.40;;;6.73;;
7177;SDS011;3630;42.146;24.756;2023-03-14T13:50:22;7.03;;;6.03;;
7177;SDS011;3630;42.146;24.756;2023-03-14T13:52:54;7.28;;;6.57;;
7177;SDS011;3630;42.146;24.756;2023-03-14T13:55:23;10.60;;;6.37;;
7177;SDS011;3630;42.146;24.756;2023-03-14T13:57:51;7.57;;;6.57;;
7177;SDS011;3630;42.146;24.756;2023-03-14T14:00:21;6.70;;;5.93;;
7177;SDS011;3630;42.146;24.756;2023-03-14T14:02:51;7.87;;;5.80;;
7177;SDS011;3630;42.146;24.756;2023-03-14T14:05:19;10.10;;;5.60;;
7177;SDS011;3630;42.146;24.756;2023-03-14T14:07:48;6.20;;;5.43;;
7177;SDS011;3630;42.146;24.756;2023-03-14T14:10:15;7.77;;;5.57;;
7177;SDS011;3630;42.146;24.756;2023-03-14T14:12:42;5.63;;;4.87;;
7177;SDS011;3630;42.146;24.756;2023-03-14T14:15:16;8.10;;;5.83;;
7177;SDS011;3630;42.146;24.756;2023-03-14T14:17:48;12.23;;;5.77;;
7177;SDS011;3630;42.146;24.756;2023-03-14T14:20:20;6.33;;;5.07;;
7177;SDS011;3630;42.146;24.756;2023-03-14T14:22:51;10.13;;;7.10;;
7177;SDS011;3630;42.146;24.756;2023-03-14T14:25:18;11.97;;;8.60;;
7177;SDS011;3630;42.146;24.756;2023-03-14T14:27:47;8.00;;;5.70;;
7177;SDS011;3630;42.146;24.756;2023-03-14T14:30:27;10.98;;;8.02;;
7177;SDS011;3630;42.146;24.756;2023-03-14T14:33:10;18.40;;;11.07;;
7177;SDS011;3630;42.146;24.756;2023-03-14T14:35:48;11.17;;;7.07;;
7177;SDS011;3630;42.146;24.756;2023-03-14T14:38:19;12.27;;;6.30;;
7177;SDS011;3630;42.146;24.756;2023-03-14T14:40:48;19.33;;;10.53;;
7177;SDS011;3630;42.146;24.756;2023-03-14T14:43:17;12.17;;;6.63;;
7177;SDS011;3630;42.146;24.756;2023-03-14T14:45:47;7.67;;;6.73;;
7177;SDS011;3630;42.146;24.756;2023-03-14T14:48:18;9.83;;;6.90;;
7177;SDS011;3630;42.146;24.756;2023-03-14T14:50:51;8.18;;;7.10;;
7177;SDS011;3630;42.146;24.756;2023-03-14T14:53:26;8.37;;;6.70;;
7177;SDS011;3630;42.146;24.756;2023-03-14T14:55:56;8.27;;;6.63;;
7177;SDS011;3630;42.146;24.756;2023-03-14T14:58:24;7.72;;;6.93;;
7177;SDS011;3630;42.146;24.756;2023-03-14T15:00:54;8.43;;;6.33;;
7177;SDS011;3630;42.146;24.756;2023-03-14T15:03:24;7.73;;;6.93;;
7177;SDS011;3630;42.146;24.756;2023-03-14T15:05:54;9.23;;;6.53;;